Time;durP1;ratioP1;P1;durP2;ratioP2;P2;SDS_P1;SDS_P2;PMS_P1;PMS_P2;Temp;Humidity;BMP_temperature;BMP_pressure;BME280_temperature;BME280_humidity;BME280_pressure;Samples;Min_cycle;Max_cycle;Signal;HPM_P1;HPM_P2
2023/06/11 00:02:00;;;;;;;0.00;0.00;;;;;;;25.59;44.69;100325.00;5067835;28;20407;-82
2023/06/11 00:04:26;;;;;;;0.00;0.00;;;;;;;25.58;44.35;100321.50;5053091;28;20476;-82
2023/06/11 00:06:56;;;;;;;0.00;0.00;;;;;;;25.55;44.35;100334.72;5071328;28;20799;-82
2023/06/11 00:09:24;;;;;;;0.00;0.00;;;;;;;25.37;44.38;100328.59;5051264;28;20514;-82
2023/06/11 00:11:52;;;;;;;0.00;0.00;;;;;;;25.38;44.39;100330.22;5066358;28;20426;-82
2023/06/11 00:14:18;;;;;;;0.00;0.00;;;;;;;25.31;43.82;100329.59;5039607;28;20778;-82
2023/06/11 00:16:43;;;;;;;0.00;0.00;;;;;;;25.39;44.02;100331.06;5051576;28;20412;-82
2023/06/11 00:19:12;;;;;;;0.00;0.00;;;;;;;25.40;43.94;100343.50;5060597;28;20409;-82
2023/06/11 00:21:43;;;;;;;0.00;0.00;;;;;;;25.42;44.11;100328.63;5058117;28;20516;-82
2023/06/11 00:24:14;;;;;;;0.00;0.00;;;;;;;25.41;43.78;100331.63;5050352;28;20410;-82
2023/06/11 00:26:42;;;;;;;0.00;0.00;;;;;;;25.44;43.18;100331.09;5054054;28;20402;-82
2023/06/11 00:29:09;;;;;;;0.00;0.00;;;;;;;25.37;43.20;100327.78;5059270;28;20753;-82
2023/06/11 00:31:35;;;;;;;0.00;0.00;;;;;;;25.30;43.74;100332.56;5065432;28;20908;-82
2023/06/11 00:34:04;;;;;;;0.00;0.00;;;;;;;25.28;43.72;100327.41;5058351;28;20506;-81
2023/06/11 00:36:29;;;;;;;0.00;0.00;;;;;;;25.09;43.52;100336.91;5055853;28;20417;-82
2023/06/11 00:38:55;;;;;;;0.00;0.00;;;;;;;25.19;43.46;100334.34;5060370;28;20413;-82
2023/06/11 00:41:21;;;;;;;0.00;0.00;;;;;;;25.17;43.24;100334.59;5062296;28;20437;-81
2023/06/11 00:43:52;;;;;;;0.00;0.00;;;;;;;25.14;43.41;100340.47;5067969;28;20401;-82
2023/06/11 00:46:18;;;;;;;0.00;0.00;;;;;;;25.18;43.28;100335.41;5062634;28;20450;-82
2023/06/11 00:48:43;;;;;;;0.00;0.00;;;;;;;25.21;43.29;100335.72;5059065;28;20402;-82
2023/06/11 00:51:10;;;;;;;0.00;0.00;;;;;;;25.19;43.08;100337.03;5054538;28;20427;-82
2023/06/11 00:53:36;;;;;;;0.00;0.00;;;;;;;25.18;43.46;100335.41;5045715;28;20548;-81
2023/06/11 00:56:01;;;;;;;0.00;0.00;;;;;;;25.11;43.75;100343.69;5059871;28;20441;-82
2023/06/11 00:58:27;;;;;;;0.00;0.00;;;;;;;25.07;44.03;100345.25;5056393;28;20400;-82
2023/06/11 01:00:56;;;;;;;0.00;0.00;;;;;;;25.05;43.79;100350.13;5057742;28;20420;-83
2023/06/11 01:03:26;;;;;;;0.00;0.00;;;;;;;24.75;44.04;100342.44;5064794;28;20407;-82
2023/06/11 01:06:11;;;;;;;0.00;0.00;;;;;;;24.68;44.02;100339.09;5067748;28;20403;-82
2023/06/11 01:08:41;;;;;;;0.00;0.00;;;;;;;24.65;44.29;100345.00;5050206;28;20401;-82
2023/06/11 01:11:17;;;;;;;0.00;0.00;;;;;;;24.68;44.16;100352.63;5057683;28;20400;-81
2023/06/11 01:13:42;;;;;;;0.00;0.00;;;;;;;24.64;44.01;100346.88;5057787;28;20430;-81
2023/06/11 01:16:42;;;;;;;0.00;0.00;;;;;;;24.59;44.35;100354.91;5051623;28;20417;-82
2023/06/11 01:19:20;;;;;;;0.00;0.00;;;;;;;24.56;44.38;100352.72;5058429;28;20415;-82
2023/06/11 01:21:52;;;;;;;0.00;0.00;;;;;;;24.47;44.46;100351.50;5072583;28;20428;-82
2023/06/11 01:24:40;;;;;;;0.00;0.00;;;;;;;24.38;44.89;100359.16;5074537;28;20408;-81
2023/06/11 01:27:16;;;;;;;0.00;0.00;;;;;;;24.24;45.42;100353.31;5080256;28;20415;-82
2023/06/11 01:29:45;;;;;;;0.00;0.00;;;;;;;24.13;45.86;100352.31;5084074;28;20415;-82
2023/06/11 01:32:11;;;;;;;0.00;0.00;;;;;;;23.98;46.03;100346.69;5057524;28;20548;-83
2023/06/11 01:34:41;;;;;;;0.00;0.00;;;;;;;23.89;46.45;100346.25;5064588;28;20412;-84
2023/06/11 01:37:09;;;;;;;0.00;0.00;;;;;;;23.84;46.92;100353.47;5057513;28;20452;-83
2023/06/11 01:39:34;;;;;;;0.00;0.00;;;;;;;23.73;46.93;100352.41;5057806;28;20436;-83
2023/06/11 01:41:59;;;;;;;0.00;0.00;;;;;;;23.74;46.98;100343.31;5068174;28;20447;-83
2023/06/11 01:44:25;;;;;;;0.00;0.00;;;;;;;23.72;47.07;100342.69;5063488;28;20392;-83
2023/06/11 01:46:50;;;;;;;0.00;0.00;;;;;;;23.64;47.14;100348.47;5069460;28;20907;-82
2023/06/11 01:49:16;;;;;;;0.00;0.00;;;;;;;23.64;47.29;100345.78;5060450;28;20508;-83
2023/06/11 01:51:41;;;;;;;0.00;0.00;;;;;;;23.61;47.54;100347.06;5054272;28;20417;-83
2023/06/11 01:54:06;;;;;;;0.00;0.00;;;;;;;23.50;47.68;100351.47;5051376;28;20455;-82
2023/06/11 01:56:32;;;;;;;0.00;0.00;;;;;;;23.51;47.64;100349.59;5057401;28;20421;-83
2023/06/11 01:58:57;;;;;;;0.00;0.00;;;;;;;23.58;47.69;100354.84;5052706;28;20413;-83
2023/06/11 02:01:23;;;;;;;0.00;0.00;;;;;;;23.57;47.82;100347.81;5068970;28;20419;-82
2023/06/11 02:03:48;;;;;;;0.00;0.00;;;;;;;23.52;47.92;100352.03;5063854;28;20443;-82
2023/06/11 02:06:13;;;;;;;0.00;0.00;;;;;;;23.52;48.19;100348.53;5057597;28;20856;-83
2023/06/11 02:08:39;;;;;;;0.00;0.00;;;;;;;23.44;48.32;100348.94;5062506;28;20465;-82
2023/06/11 02:11:04;;;;;;;0.00;0.00;;;;;;;23.35;48.56;100353.88;5057537;28;20420;-84
2023/06/11 02:13:32;;;;;;;0.00;0.00;;;;;;;23.33;48.87;100358.69;5063686;28;20919;-82
2023/06/11 02:15:58;;;;;;;0.00;0.00;;;;;;;23.23;49.01;100347.72;5063522;28;20419;-82
2023/06/11 02:18:24;;;;;;;0.00;0.00;;;;;;;23.13;49.56;100353.72;5054696;28;21226;-82
2023/06/11 02:20:50;;;;;;;0.00;0.00;;;;;;;23.09;49.35;100360.66;5051030;28;20691;-82
2023/06/11 02:23:16;;;;;;;0.00;0.00;;;;;;;23.00;50.03;100362.91;5064175;28;20419;-82
2023/06/11 02:25:41;;;;;;;0.00;0.00;;;;;;;23.00;49.91;100367.47;5060686;28;20399;-82
2023/06/11 02:28:06;;;;;;;0.00;0.00;;;;;;;23.00;50.01;100367.47;5055786;28;20414;-82
2023/06/11 02:30:32;;;;;;;0.00;0.00;;;;;;;22.93;50.14;100370.28;5062700;28;21146;-82
2023/06/11 02:32:57;;;;;;;0.00;0.00;;;;;;;22.92;50.73;100370.50;5059656;28;20445;-82
2023/06/11 02:35:22;;;;;;;0.00;0.00;;;;;;;22.86;50.63;100378.50;5071060;28;20921;-82
2023/06/11 02:37:47;;;;;;;0.00;0.00;;;;;;;22.79;51.01;100374.28;5070742;28;20428;-82
2023/06/11 02:40:13;;;;;;;0.00;0.00;;;;;;;22.81;51.06;100377.53;5070724;28;20451;-82
2023/06/11 02:42:38;;;;;;;0.00;0.00;;;;;;;22.74;51.22;100385.78;5068276;28;20397;-82
2023/06/11 02:45:04;;;;;;;0.00;0.00;;;;;;;22.71;51.18;100390.81;5069226;28;20915;-82
2023/06/11 02:47:29;;;;;;;0.00;0.00;;;;;;;22.77;51.34;100388.00;5066690;28;20754;-82
2023/06/11 02:49:55;;;;;;;0.00;0.00;;;;;;;22.65;51.57;100387.19;5065199;28;20416;-82
2023/06/11 02:52:20;;;;;;;0.00;0.00;;;;;;;22.72;51.49;100381.69;5066549;28;20425;-82
2023/06/11 02:54:45;;;;;;;0.00;0.00;;;;;;;22.51;51.99;100391.16;5061473;28;20420;-82
2023/06/11 02:57:10;;;;;;;0.00;0.00;;;;;;;22.53;52.03;100397.16;5068889;28;20473;-81
2023/06/11 02:59:36;;;;;;;0.00;0.00;;;;;;;22.56;51.88;100392.09;5066129;28;20419;-82
2023/06/11 03:02:01;;;;;;;0.00;0.00;;;;;;;22.50;52.33;100400.28;5054909;28;20409;-83
2023/06/11 03:04:26;;;;;;;0.00;0.00;;;;;;;22.38;53.15;100397.59;5070663;28;20402;-81
2023/06/11 03:06:51;;;;;;;0.00;0.00;;;;;;;22.47;52.45;100398.88;5058060;28;20857;-83
2023/06/11 03:09:17;;;;;;;0.00;0.00;;;;;;;;;;5060806;28;20421;-82
2023/06/11 03:11:42;;;;;;;0.00;0.00;;;;;;;;;;5060795;28;20941;-84
2023/06/11 03:14:07;;;;;;;0.00;0.00;;;;;;;22.34;52.50;100405.31;5055165;28;20494;-82
2023/06/11 03:16:33;;;;;;;0.00;0.00;;;;;;;22.36;52.88;100407.81;5053121;28;20407;-83
2023/06/11 03:18:58;;;;;;;0.00;0.00;;;;;;;22.25;53.21;100406.72;5065465;28;20869;-84
2023/06/11 03:21:23;;;;;;;0.00;0.00;;;;;;;22.22;53.11;100408.00;5049666;28;20433;-83
2023/06/11 03:23:49;;;;;;;0.00;0.00;;;;;;;22.26;53.28;100408.34;5053795;28;20420;-84
2023/06/11 03:26:14;;;;;;;0.00;0.00;;;;;;;22.20;53.32;100415.50;5064071;28;20515;-84
2023/06/11 03:28:40;;;;;;;0.00;0.00;;;;;;;22.22;53.31;100415.28;5056127;28;20446;-83
2023/06/11 03:31:05;;;;;;;0.00;0.00;;;;;;;22.12;53.53;100413.13;5055621;28;20496;-84
2023/06/11 03:33:30;;;;;;;0.00;0.00;;;;;;;22.15;53.58;100411.81;5056288;28;20418;-83
2023/06/11 03:35:56;;;;;;;0.00;0.00;;;;;;;22.08;53.95;100411.91;5063899;28;20417;-83
2023/06/11 03:38:21;;;;;;;0.00;0.00;;;;;;;22.11;53.88;100407.94;5055930;28;20932;-83
2023/06/11 03:40:46;;;;;;;0.00;0.00;;;;;;;22.01;53.90;100412.00;5052587;28;20416;-84
2023/06/11 03:43:11;;;;;;;0.00;0.00;;;;;;;22.08;54.14;100411.91;5061131;28;20943;-83
2023/06/11 03:45:37;;;;;;;0.00;0.00;;;;;;;21.95;54.48;100410.25;5050297;28;20421;-82
2023/06/11 03:48:04;;;;;;;0.00;0.00;;;;;;;21.94;54.29;100411.28;5053426;28;20437;-82
2023/06/11 03:50:29;;;;;;;0.00;0.00;;;;;;;21.96;54.44;100411.06;5049944;28;20394;-81
2023/06/11 03:52:55;;;;;;;0.00;0.00;;;;;;;21.89;54.63;100419.25;5056847;28;20424;-82
2023/06/11 03:55:20;;;;;;;0.00;0.00;;;;;;;21.89;54.63;100413.03;5053472;28;20412;-85
2023/06/11 03:57:45;;;;;;;0.00;0.00;;;;;;;21.83;55.06;100412.91;5067236;28;20415;-82
2023/06/11 04:00:12;;;;;;;0.00;0.00;;;;;;;21.90;54.75;100407.41;5058131;28;20644;-82
2023/06/11 04:02:37;;;;;;;0.00;0.00;;;;;;;21.88;54.83;100412.22;5056581;28;20398;-83
2023/06/11 04:05:03;;;;;;;0.00;0.00;;;;;;;21.79;54.98;100411.72;5053950;28;20402;-83
2023/06/11 04:07:29;;;;;;;0.00;0.00;;;;;;;21.82;55.10;100411.25;5051729;28;20420;-83
2023/06/11 04:09:54;;;;;;;0.00;0.00;;;;;;;21.85;55.03;100415.34;5050842;28;20445;-82
2023/06/11 04:12:19;;;;;;;0.00;0.00;;;;;;;21.80;55.06;100417.91;5057626;28;20425;-83
2023/06/11 04:14:45;;;;;;;0.00;0.00;;;;;;;21.84;55.03;100419.94;5061607;28;20422;-83
2023/06/11 04:17:10;;;;;;;0.00;0.00;;;;;;;21.83;55.16;100417.44;5050396;28;20833;-85
2023/06/11 04:19:36;;;;;;;0.00;0.00;;;;;;;21.88;55.03;100416.78;5068963;28;20422;-84
2023/06/11 04:22:01;;;;;;;0.00;0.00;;;;;;;21.92;54.99;100424.16;5071462;28;20415;-83
2023/06/11 04:24:26;;;;;;;0.00;0.00;;;;;;;21.94;55.09;100416.69;5065106;28;20416;-85
2023/06/11 04:26:51;;;;;;;0.00;0.00;;;;;;;21.87;55.28;100426.72;5060847;28;20400;-85
2023/06/11 04:29:18;;;;;;;0.00;0.00;;;;;;;21.75;55.50;100417.78;5069570;28;20477;-84
2023/06/11 04:31:46;;;;;;;0.00;0.00;;;;;;;21.78;55.62;100428.09;5052655;28;20409;-84
2023/06/11 04:34:12;;;;;;;0.00;0.00;;;;;;;21.66;56.11;100422.66;5056696;28;20921;-84
2023/06/11 04:36:40;;;;;;;0.00;0.00;;;;;;;21.67;56.20;100424.31;5063269;28;20434;-85
2023/06/11 04:39:06;;;;;;;0.00;0.00;;;;;;;21.59;56.57;100428.13;5065405;28;20419;-84
2023/06/11 04:41:31;;;;;;;0.00;0.00;;;;;;;21.68;56.27;100425.13;5059004;28;20482;-84
2023/06/11 04:44:00;;;;;;;0.00;0.00;;;;;;;21.72;56.42;100427.13;5059475;28;20415;-83
2023/06/11 04:46:25;;;;;;;0.00;0.00;;;;;;;21.84;56.51;100421.81;5055697;28;20668;-83
2023/06/11 04:48:51;;;;;;;0.00;0.00;;;;;;;22.03;55.67;100428.78;5060518;28;20667;-83
2023/06/11 04:51:17;;;;;;;0.00;0.00;;;;;;;22.09;55.68;100426.19;5053235;28;20448;-83
2023/06/11 04:53:43;;;;;;;0.00;0.00;;;;;;;22.17;55.30;100432.09;5068719;28;20438;-83
2023/06/11 04:56:08;;;;;;;0.00;0.00;;;;;;;22.25;54.93;100430.97;5068067;28;20498;-83
2023/06/11 04:58:33;;;;;;;0.00;0.00;;;;;;;22.26;54.60;100430.75;5068511;28;20764;-81
2023/06/11 05:00:59;;;;;;;0.00;0.00;;;;;;;22.34;54.49;100434.16;5065815;28;20773;-82
2023/06/11 05:03:26;;;;;;;0.00;0.00;;;;;;;22.30;54.80;100431.09;5069706;28;20413;-83
2023/06/11 05:05:53;;;;;;;0.00;0.00;;;;;;;22.29;54.92;100428.63;5058298;28;20408;-84
2023/06/11 05:08:24;;;;;;;0.00;0.00;;;;;;;22.38;54.73;100432.59;5057982;28;20411;-85
2023/06/11 05:10:50;;;;;;;0.00;0.00;;;;;;;22.51;54.47;100435.09;5051841;28;20389;-84
2023/06/11 05:13:16;;;;;;;0.00;0.00;;;;;;;22.58;54.33;100430.41;5061285;28;20434;-83
2023/06/11 05:15:41;;;;;;;0.00;0.00;;;;;;;22.71;53.51;100442.03;5067979;28;20916;-82
2023/06/11 05:18:06;;;;;;;0.00;0.00;;;;;;;22.88;53.11;100437.56;5067944;28;20419;-82
2023/06/11 05:20:32;;;;;;;0.00;0.00;;;;;;;22.42;53.99;100447.25;5064025;28;20488;-83
2023/06/11 05:23:02;;;;;;;0.00;0.00;;;;;;;22.67;53.75;100437.09;5060709;28;20515;-84
2023/06/11 05:25:28;;;;;;;0.00;0.00;;;;;;;22.85;53.65;100440.72;5055966;28;20407;-83
2023/06/11 05:27:57;;;;;;;0.00;0.00;;;;;;;23.04;52.90;100442.28;5063707;28;20412;-83
2023/06/11 05:30:25;;;;;;;0.00;0.00;;;;;;;23.08;52.79;100442.63;5063534;28;20424;-83
2023/06/11 05:32:51;;;;;;;0.00;0.00;;;;;;;23.16;53.02;100444.94;5066231;28;20428;-83
2023/06/11 05:35:17;;;;;;;0.00;0.00;;;;;;;23.35;52.40;100452.91;5060255;28;20414;-84
2023/06/11 05:37:43;;;;;;;0.00;0.00;;;;;;;23.47;52.29;100454.50;5057607;28;20419;-85
2023/06/11 05:40:09;;;;;;;0.00;0.00;;;;;;;23.61;52.06;100451.53;5068164;28;20408;-84
2023/06/11 05:42:34;;;;;;;0.00;0.00;;;;;;;23.56;52.19;100443.34;5066505;28;20399;-85
2023/06/11 05:44:59;;;;;;;0.00;0.00;;;;;;;23.83;51.98;100447.13;5059186;28;20431;-84
2023/06/11 05:47:25;;;;;;;0.00;0.00;;;;;;;23.86;51.98;100443.13;5068194;28;21046;-84
2023/06/11 05:49:50;;;;;;;0.00;0.00;;;;;;;24.23;51.52;100448.94;5054186;28;20413;-85
2023/06/11 05:52:15;;;;;;;0.00;0.00;;;;;;;24.76;50.16;100455.75;5059069;28;20413;-84
2023/06/11 05:54:41;;;;;;;0.00;0.00;;;;;;;25.22;49.97;100455.63;5059898;28;20409;-84
2023/06/11 05:57:17;;;;;;;0.00;0.00;;;;;;;25.59;49.35;100458.50;5072553;28;20450;-85
2023/06/11 05:59:42;;;;;;;0.00;0.00;;;;;;;25.99;48.44;100461.94;5062544;28;20417;-84
2023/06/11 06:02:07;;;;;;;0.00;0.00;;;;;;;26.55;47.25;100456.22;5065293;28;20414;-84
2023/06/11 06:04:33;;;;;;;0.00;0.00;;;;;;;26.77;46.41;100456.09;5063825;28;20410;-86
2023/06/11 06:06:58;;;;;;;0.00;0.00;;;;;;;26.37;47.04;100460.13;5062676;28;20929;-84
2023/06/11 06:09:23;;;;;;;0.00;0.00;;;;;;;26.24;47.67;100455.94;5065704;28;20420;-84
2023/06/11 06:11:48;;;;;;;0.00;0.00;;;;;;;26.45;46.66;100456.94;5061037;28;20433;-86
2023/06/11 06:14:14;;;;;;;0.00;0.00;;;;;;;26.58;46.94;100463.88;5068569;28;20772;-84
2023/06/11 06:16:39;;;;;;;0.00;0.00;;;;;;;26.84;46.57;100460.25;5052800;28;20410;-85
2023/06/11 06:19:05;;;;;;;0.00;0.00;;;;;;;27.11;45.33;100464.72;5063745;28;20493;-85
2023/06/11 06:21:30;;;;;;;0.00;0.00;;;;;;;27.53;44.87;100470.13;5059013;28;20421;-85
2023/06/11 06:23:55;;;;;;;0.00;0.00;;;;;;;28.08;42.89;100467.84;5056685;28;20801;-84
2023/06/11 06:26:22;;;;;;;0.00;0.00;;;;;;;28.28;42.19;100477.09;5054457;28;20438;-85
2023/06/11 06:28:48;;;;;;;0.00;0.00;;;;;;;28.85;42.16;100476.00;5057313;28;20441;-84
2023/06/11 06:31:13;;;;;;;0.00;0.00;;;;;;;29.31;41.01;100478.63;5056603;28;20463;-84
2023/06/11 06:33:39;;;;;;;0.00;0.00;;;;;;;29.39;40.65;100483.53;5061858;28;20837;-83
2023/06/11 06:36:04;;;;;;;0.00;0.00;;;;;;;29.76;39.34;100478.75;5057481;28;20471;-82
2023/06/11 06:38:31;;;;;;;0.00;0.00;;;;;;;30.20;38.35;100480.63;5052134;28;20493;-85
2023/06/11 06:40:57;;;;;;;0.00;0.00;;;;;;;30.69;37.79;100476.97;5055646;28;20421;-83
2023/06/11 06:43:22;;;;;;;0.00;0.00;;;;;;;31.08;35.05;100476.03;5056346;28;20416;-82
2023/06/11 06:45:47;;;;;;;0.00;0.00;;;;;;;31.27;34.64;100476.94;5059053;28;20437;-82
2023/06/11 06:48:13;;;;;;;0.00;0.00;;;;;;;31.11;35.78;100479.03;5062031;28;21156;-82
2023/06/11 06:50:38;;;;;;;0.00;0.00;;;;;;;31.75;35.49;100481.56;5059716;28;20484;-82
2023/06/11 06:53:03;;;;;;;0.00;0.00;;;;;;;32.32;34.91;100484.25;5062353;28;20444;-82
2023/06/11 06:55:28;;;;;;;0.00;0.00;;;;;;;32.77;34.72;100481.88;5053383;28;20476;-83
2023/06/11 06:57:54;;;;;;;0.00;0.00;;;;;;;32.24;33.95;100480.28;5057221;28;20425;-83
2023/06/11 07:00:19;;;;;;;0.00;0.00;;;;;;;32.69;33.59;100479.84;5061844;28;20443;-82
2023/06/11 07:02:45;;;;;;;0.00;0.00;;;;;;;32.32;32.56;100485.09;5060650;28;20400;-82
2023/06/11 07:05:11;;;;;;;0.00;0.00;;;;;;;31.75;33.57;100487.03;5060427;28;20411;-82
2023/06/11 07:07:36;;;;;;;0.00;0.00;;;;;;;31.89;33.84;100484.34;5058715;28;20410;-82
2023/06/11 07:10:02;;;;;;;0.00;0.00;;;;;;;32.30;33.48;100489.25;5058759;28;20448;-82
2023/06/11 07:12:27;;;;;;;0.00;0.00;;;;;;;32.64;33.10;100486.22;5048577;28;20493;-85
2023/06/11 07:14:52;;;;;;;0.00;0.00;;;;;;;32.67;31.87;100485.59;5057515;28;20408;-83
2023/06/11 07:17:18;;;;;;;0.00;0.00;;;;;;;32.61;32.19;100500.53;5060391;28;20770;-83
2023/06/11 07:19:43;;;;;;;0.00;0.00;;;;;;;33.03;32.60;100498.66;5060803;28;20422;-83
2023/06/11 07:22:09;;;;;;;0.00;0.00;;;;;;;33.61;31.39;100497.28;5059420;28;20416;-84
2023/06/11 07:24:35;;;;;;;0.00;0.00;;;;;;;33.90;30.58;100490.59;5069481;28;20410;-86
2023/06/11 07:27:00;;;;;;;0.00;0.00;;;;;;;34.16;30.67;100490.84;5075440;28;20412;-84
2023/06/11 07:29:25;;;;;;;0.00;0.00;;;;;;;34.37;28.19;100483.75;5074795;28;20477;-83
2023/06/11 07:31:51;;;;;;;0.00;0.00;;;;;;;34.51;27.37;100488.31;5068287;28;20408;-84
2023/06/11 07:34:16;;;;;;;0.00;0.00;;;;;;;34.57;26.18;100490.63;5056317;28;20922;-84
2023/06/11 07:36:41;;;;;;;0.00;0.00;;;;;;;33.98;26.37;100487.91;5063510;28;20428;-83
2023/06/11 07:39:07;;;;;;;0.00;0.00;;;;;;;33.83;26.68;100489.09;5063574;28;20415;-84
2023/06/11 07:41:32;;;;;;;0.00;0.00;;;;;;;33.91;26.96;100493.03;5055631;28;21040;-84
2023/06/11 07:43:58;;;;;;;0.00;0.00;;;;;;;34.14;27.07;100501.31;5057070;28;20420;-85
2023/06/11 07:46:23;;;;;;;0.00;0.00;;;;;;;34.61;26.34;100493.59;5067207;28;21996;-85
2023/06/11 07:48:48;;;;;;;0.00;0.00;;;;;;;34.43;25.80;100489.91;5052661;28;20910;-84
2023/06/11 07:51:14;;;;;;;0.00;0.00;;;;;;;34.35;26.63;100483.25;5046494;28;20426;-84
2023/06/11 07:53:40;;;;;;;0.00;0.00;;;;;;;34.61;25.40;100488.91;5058758;28;20492;-85
2023/06/11 07:56:06;;;;;;;0.00;0.00;;;;;;;34.17;26.26;100476.81;5051952;28;20408;-83
2023/06/11 07:58:31;;;;;;;0.00;0.00;;;;;;;34.33;26.59;100488.22;5054620;28;20418;-85
2023/06/11 08:00:56;;;;;;;0.00;0.00;;;;;;;34.55;25.26;100483.84;5059524;28;20416;-83
2023/06/11 08:03:22;;;;;;;0.00;0.00;;;;;;;34.84;25.27;100484.16;5059380;28;21050;-85
2023/06/11 08:05:47;;;;;;;0.00;0.00;;;;;;;35.02;24.82;100489.75;5053367;28;20425;-85
2023/06/11 08:08:12;;;;;;;0.00;0.00;;;;;;;34.88;24.20;100482.41;5052983;28;20421;-83
2023/06/11 08:10:38;;;;;;;0.00;0.00;;;;;;;35.26;23.75;100476.44;5055503;28;20396;-83
2023/06/11 08:13:03;;;;;;;0.00;0.00;;;;;;;35.64;23.54;100480.59;5060910;28;20419;-82
2023/06/11 08:15:29;;;;;;;0.00;0.00;;;;;;;35.63;23.78;100478.97;5051313;28;20806;-82
2023/06/11 08:17:54;;;;;;;0.00;0.00;;;;;;;35.89;23.68;100474.28;5058771;28;20425;-83
2023/06/11 08:20:20;;;;;;;0.00;0.00;;;;;;;36.31;22.37;100488.38;5066995;28;20416;-83
2023/06/11 08:22:45;;;;;;;0.00;0.00;;;;;;;35.80;22.66;100478.97;5058569;28;20446;-83
2023/06/11 08:25:11;;;;;;;0.00;0.00;;;;;;;35.59;22.49;100476.03;5059087;28;20435;-82
2023/06/11 08:27:36;;;;;;;0.00;0.00;;;;;;;35.71;22.63;100469.94;5060586;28;20417;-83
2023/06/11 08:30:03;;;;;;;0.00;0.00;;;;;;;35.59;21.80;100472.44;5056999;28;20415;-83
2023/06/11 08:32:28;;;;;;;0.00;0.00;;;;;;;35.39;22.25;100462.88;5054888;28;20394;-83
2023/06/11 08:34:53;;;;;;;0.00;0.00;;;;;;;35.16;21.31;100463.00;5058760;28;20879;-82
2023/06/11 08:37:18;;;;;;;0.00;0.00;;;;;;;35.43;21.31;100469.38;5063792;28;20491;-82
2023/06/11 08:39:44;;;;;;;0.00;0.00;;;;;;;36.15;21.99;100468.78;5051077;28;20508;-83
2023/06/11 08:42:09;;;;;;;0.00;0.00;;;;;;;36.63;21.38;100464.19;5056077;28;20458;-83
2023/06/11 08:44:35;;;;;;;0.00;0.00;;;;;;;37.11;20.60;100467.75;5052068;28;20417;-83
2023/06/11 08:47:03;;;;;;;0.00;0.00;;;;;;;36.91;20.15;100467.31;5052320;28;20972;-83
2023/06/11 08:49:30;;;;;;;0.00;0.00;;;;;;;37.07;19.98;100461.28;5050825;28;20425;-84
2023/06/11 08:52:01;;;;;;;0.00;0.00;;;;;;;37.38;19.93;100469.22;5054562;28;20420;-82
2023/06/11 08:54:26;;;;;;;0.00;0.00;;;;;;;36.80;19.43;100468.03;5054760;28;20392;-83
2023/06/11 08:56:53;;;;;;;0.00;0.00;;;;;;;37.16;20.26;100457.34;5058943;28;20921;-83
2023/06/11 08:59:19;;;;;;;0.00;0.00;;;;;;;37.71;19.40;100463.81;5061993;28;20756;-83
2023/06/11 09:01:50;;;;;;;0.00;0.00;;;;;;;37.67;17.99;100459.31;5055749;28;20408;-83
2023/06/11 09:04:16;;;;;;;0.00;0.00;;;;;;;37.31;18.19;100461.47;5055178;28;20445;-83
2023/06/11 09:06:52;;;;;;;0.00;0.00;;;;;;;37.31;18.54;100468.94;5058758;28;20458;-83
2023/06/11 09:09:17;;;;;;;0.00;0.00;;;;;;;37.35;18.18;100456.09;5059016;28;20476;-83
2023/06/11 09:11:45;;;;;;;0.00;0.00;;;;;;;37.80;18.17;100453.50;5058953;28;20499;-83
2023/06/11 09:14:10;;;;;;;0.00;0.00;;;;;;;38.00;17.51;100454.66;5055981;28;20436;-83
2023/06/11 09:16:41;;;;;;;0.00;0.00;;;;;;;37.91;18.31;100447.59;5054303;28;20396;-83
2023/06/11 09:19:08;;;;;;;0.00;0.00;;;;;;;37.33;17.48;100444.56;5060549;28;20441;-83
2023/06/11 09:21:36;;;;;;;0.00;0.00;;;;;;;38.02;17.70;100454.34;5055201;28;20405;-84
2023/06/11 09:24:09;;;;;;;0.00;0.00;;;;;;;37.99;17.75;100450.28;5057740;28;20418;-83
2023/06/11 09:26:35;;;;;;;0.00;0.00;;;;;;;37.51;17.67;100450.78;5055997;28;20399;-82
2023/06/11 09:29:00;;;;;;;0.00;0.00;;;;;;;37.56;17.42;100447.84;5056260;28;20416;-82
2023/06/11 09:31:26;;;;;;;0.00;0.00;;;;;;;37.89;17.37;100450.66;5059134;28;20482;-82
2023/06/11 09:33:52;;;;;;;0.00;0.00;;;;;;;37.89;16.90;100456.19;5071025;28;20396;-82
2023/06/11 09:36:18;;;;;;;0.00;0.00;;;;;;;38.10;16.38;100458.16;5060523;28;20447;-83
2023/06/11 09:38:46;;;;;;;0.00;0.00;;;;;;;38.59;16.43;100450.84;5048206;28;20774;-83
2023/06/11 09:41:11;;;;;;;0.00;0.00;;;;;;;38.03;16.52;100453.19;5059345;28;20407;-82
2023/06/11 09:43:37;;;;;;;0.00;0.00;;;;;;;37.90;16.85;100445.94;5051784;28;20419;-82
2023/06/11 09:46:03;;;;;;;0.00;0.00;;;;;;;37.95;17.68;100443.81;5072310;28;20717;-82
2023/06/11 09:48:29;;;;;;;0.00;0.00;;;;;;;38.43;17.46;100447.88;5053164;28;20413;-82
2023/06/11 09:50:54;;;;;;;0.00;0.00;;;;;;;38.94;16.14;100449.59;5054159;28;20761;-82
2023/06/11 09:53:22;;;;;;;0.00;0.00;;;;;;;39.75;15.92;100450.53;5048480;28;20415;-82
2023/06/11 09:55:51;;;;;;;0.00;0.00;;;;;;;38.95;16.11;100449.28;5057344;28;20415;-81
2023/06/11 09:58:17;;;;;;;0.00;0.00;;;;;;;38.98;16.46;100450.53;5059081;28;20430;-83
2023/06/11 10:00:47;;;;;;;0.00;0.00;;;;;;;38.29;16.27;100460.41;5064193;28;20471;-86
2023/06/11 10:03:12;;;;;;;0.00;0.00;;;;;;;38.54;15.93;100451.03;5060625;28;20665;-84
2023/06/11 10:05:37;;;;;;;0.00;0.00;;;;;;;38.90;15.56;100454.97;5076543;28;20514;-84
2023/06/11 10:08:17;;;;;;;0.00;0.00;;;;;;;39.05;15.45;100454.34;5054490;28;20417;-83
2023/06/11 10:10:45;;;;;;;0.00;0.00;;;;;;;38.38;16.88;100448.13;5065666;28;20434;-85
2023/06/11 10:13:11;;;;;;;0.00;0.00;;;;;;;39.13;15.56;100438.75;5061258;28;20499;-83
2023/06/11 10:15:37;;;;;;;0.00;0.00;;;;;;;39.66;16.10;100438.78;5053796;28;20989;-82
2023/06/11 10:18:12;;;;;;;0.00;0.00;;;;;;;40.33;15.76;100445.47;5059458;28;20419;-83
2023/06/11 10:20:37;;;;;;;0.00;0.00;;;;;;;39.60;15.47;100457.63;5045771;28;20397;-83
2023/06/11 10:23:03;;;;;;;0.00;0.00;;;;;;;39.53;15.73;100451.06;5067268;28;20430;-83
2023/06/11 10:25:36;;;;;;;0.00;0.00;;;;;;;39.08;15.88;100450.06;5070147;28;20416;-83
2023/06/11 10:28:01;;;;;;;0.00;0.00;;;;;;;39.20;15.90;100446.47;5068687;28;20419;-84
2023/06/11 10:30:27;;;;;;;0.00;0.00;;;;;;;39.46;15.40;100446.91;5069274;28;20397;-83
2023/06/11 10:32:53;;;;;;;0.00;0.00;;;;;;;38.54;16.68;100448.28;5072917;28;20465;-81
2023/06/11 10:35:32;;;;;;;0.00;0.00;;;;;;;38.96;16.05;100441.78;5068782;28;20424;-84
2023/06/11 10:38:02;;;;;;;0.00;0.00;;;;;;;39.60;15.81;100441.00;5066229;28;20414;-82
2023/06/11 10:40:34;;;;;;;0.00;0.00;;;;;;;39.80;16.07;100442.00;5070428;28;20388;-84
2023/06/11 10:43:02;;;;;;;0.00;0.00;;;;;;;40.01;16.01;100447.34;5066986;28;20404;-85
2023/06/11 10:45:38;;;;;;;0.00;0.00;;;;;;;39.85;15.87;100449.25;5058844;28;20417;-84
2023/06/11 10:48:04;;;;;;;0.00;0.00;;;;;;;39.59;16.02;100441.34;5065791;28;20468;-83
2023/06/11 10:50:33;;;;;;;0.00;0.00;;;;;;;39.77;15.50;100442.69;5059055;28;20935;-84
2023/06/11 10:53:05;;;;;;;0.00;0.00;;;;;;;39.94;15.47;100438.03;5062619;28;20776;-84
2023/06/11 10:55:32;;;;;;;0.00;0.00;;;;;;;39.65;16.10;100435.22;5065222;28;20435;-83
2023/06/11 10:58:00;;;;;;;0.00;0.00;;;;;;;39.98;15.61;100441.72;5054371;28;20689;-84
2023/06/11 11:00:32;;;;;;;0.00;0.00;;;;;;;40.13;14.99;100438.16;5061182;28;20400;-83
2023/06/11 11:02:59;;;;;;;0.00;0.00;;;;;;;38.94;15.98;100442.13;5067964;28;20403;-83
2023/06/11 11:05:28;;;;;;;0.00;0.00;;;;;;;38.80;16.55;100445.19;5054930;28;20417;-85
2023/06/11 11:07:54;;;;;;;0.00;0.00;;;;;;;38.10;16.54;100434.09;5052234;28;20411;-83
2023/06/11 11:10:26;;;;;;;0.00;0.00;;;;;;;39.43;15.59;100430.22;5048185;28;20443;-85
2023/06/11 11:12:52;;;;;;;0.00;0.00;;;;;;;39.25;15.78;100426.88;5044916;28;21043;-84
2023/06/11 11:15:19;;;;;;;0.00;0.00;;;;;;;39.11;15.85;100437.50;5058789;28;20414;-85
2023/06/11 11:17:45;;;;;;;0.00;0.00;;;;;;;39.53;15.95;100415.09;5062632;28;20419;-85
2023/06/11 11:20:17;;;;;;;0.00;0.00;;;;;;;40.26;15.05;100423.13;5062682;28;20412;-84
2023/06/11 11:22:47;;;;;;;0.00;0.00;;;;;;;39.39;15.38;100430.09;5058774;28;21762;-83
2023/06/11 11:25:15;;;;;;;0.00;0.00;;;;;;;39.27;15.52;100419.84;5064404;28;20422;-82